createdAt,value
2019-05-12T00:01:38.970Z,4.80
2019-05-12T00:04:08.724Z,4.80
2019-05-12T00:06:38.750Z,4.90
2019-05-12T00:09:08.376Z,4.90
2019-05-12T00:11:38.358Z,4.90
2019-05-12T00:14:08.607Z,5.00
2019-05-12T00:16:38.587Z,5.10
2019-05-12T00:19:09.222Z,5.10
2019-05-12T00:21:39.880Z,5.10
2019-05-12T00:24:11.420Z,5.10
2019-05-12T00:26:41.532Z,5.10
2019-05-12T00:29:11.040Z,5.10
2019-05-12T00:31:39.733Z,5.00
2019-05-12T00:34:08.936Z,5.00
2019-05-12T00:36:38.017Z,5.00
2019-05-12T00:39:08.660Z,4.90
2019-05-12T00:41:38.997Z,4.90
2019-05-12T00:44:08.973Z,4.80
2019-05-12T00:46:38.501Z,4.70
2019-05-12T00:49:08.254Z,4.70
2019-05-12T00:51:38.331Z,4.70
2019-05-12T00:54:09.269Z,4.60
2019-05-12T00:56:39.150Z,4.60
2019-05-12T00:59:09.177Z,4.60
2019-05-12T01:01:38.324Z,4.70
2019-05-12T01:04:08.839Z,4.60
2019-05-12T01:06:38.734Z,4.60
2019-05-12T01:09:08.882Z,4.50
2019-05-12T01:11:38.078Z,4.60
2019-05-12T01:14:08.589Z,4.60
2019-05-12T01:16:38.728Z,4.60
2019-05-12T01:19:08.076Z,4.40
2019-05-12T01:21:37.728Z,4.30
2019-05-12T01:24:08.822Z,4.20
2019-05-12T01:26:38.782Z,4.10
2019-05-12T01:29:08.732Z,4.00
2019-05-12T01:31:39.556Z,3.90
2019-05-12T01:34:08.386Z,3.90
2019-05-12T01:36:38.110Z,3.80
2019-05-12T01:39:08.908Z,3.80
2019-05-12T01:41:38.952Z,3.80
2019-05-12T01:44:08.981Z,3.70
2019-05-12T01:46:38.482Z,3.60
2019-05-12T01:49:08.457Z,3.60
2019-05-12T01:51:38.651Z,3.50
2019-05-12T01:54:13.774Z,3.60
2019-05-12T01:56:38.473Z,3.60
2019-05-12T01:59:08.111Z,3.60
2019-05-12T02:01:38.999Z,3.50
2019-05-12T02:04:08.273Z,3.50
2019-05-12T02:06:38.630Z,3.50
2019-05-12T02:09:09.889Z,3.50
2019-05-12T02:11:38.648Z,3.50
2019-05-12T02:14:09.301Z,3.50
2019-05-12T02:16:38.878Z,3.50
2019-05-12T02:19:09.022Z,3.40
2019-05-12T02:21:38.797Z,3.40
2019-05-12T02:24:09.324Z,3.40
2019-05-12T02:26:38.417Z,3.30
2019-05-12T02:29:08.072Z,3.20
2019-05-12T02:31:39.726Z,3.20
2019-05-12T02:34:08.172Z,3.10
2019-05-12T02:36:36.895Z,3.10
2019-05-12T02:39:08.322Z,3.10
2019-05-12T02:41:37.813Z,3.10
2019-05-12T02:44:06.614Z,3.00
2019-05-12T02:46:35.718Z,3.00
2019-05-12T02:49:05.160Z,3.00
2019-05-12T02:51:35.756Z,3.00
2019-05-12T02:54:05.845Z,2.90
2019-05-12T02:56:36.355Z,2.90
2019-05-12T02:59:06.181Z,2.80
2019-05-12T03:01:36.110Z,2.80
2019-05-12T03:04:06.160Z,2.90
2019-05-12T03:06:37.063Z,2.90
2019-05-12T03:09:07.691Z,3.00
2019-05-12T03:11:38.119Z,3.00
2019-05-12T03:14:07.135Z,3.00
2019-05-12T03:16:35.835Z,3.00
2019-05-12T03:19:05.455Z,3.00
2019-05-12T03:21:35.940Z,2.90
2019-05-12T03:24:06.716Z,2.90
2019-05-12T03:26:36.512Z,2.90
2019-05-12T03:29:06.135Z,3.00
2019-05-12T03:31:39.594Z,2.90
2019-05-12T03:34:09.556Z,2.90
2019-05-12T03:36:41.729Z,2.90
2019-05-12T03:39:09.302Z,2.90
2019-05-12T03:41:38.386Z,2.90
2019-05-12T03:44:07.474Z,2.80
2019-05-12T03:46:36.574Z,2.80
2019-05-12T03:49:05.721Z,2.80
2019-05-12T03:51:35.413Z,2.80
2019-05-12T03:54:05.478Z,2.80
2019-05-12T03:56:35.015Z,2.80
2019-05-12T03:59:05.343Z,2.70
2019-05-12T04:01:36.381Z,2.70
2019-05-12T04:04:05.775Z,2.70
2019-05-12T04:06:35.461Z,2.70
2019-05-12T04:09:07.115Z,2.70
2019-05-12T04:11:36.060Z,2.60
2019-05-12T04:14:06.247Z,2.60
2019-05-12T04:16:36.523Z,2.60
2019-05-12T04:19:06.235Z,2.60
2019-05-12T04:21:35.693Z,2.50
2019-05-12T04:24:05.900Z,2.50
2019-05-12T04:26:36.389Z,2.50
2019-05-12T04:29:05.826Z,2.40
2019-05-12T04:31:37.298Z,2.50
2019-05-12T04:34:06.391Z,2.50
2019-05-12T04:36:35.951Z,2.60
2019-05-12T04:39:07.643Z,2.60
2019-05-12T04:41:37.222Z,2.60
2019-05-12T04:44:06.366Z,2.70
2019-05-12T04:46:35.980Z,2.80
2019-05-12T04:49:05.387Z,2.80
2019-05-12T04:51:35.316Z,2.70
2019-05-12T04:54:06.029Z,2.70
2019-05-12T04:56:36.968Z,2.70
2019-05-12T04:59:05.756Z,2.70
2019-05-12T05:01:35.194Z,2.80
2019-05-12T05:04:05.710Z,2.80
2019-05-12T05:06:35.818Z,2.80
2019-05-12T05:09:07.799Z,2.90
2019-05-12T05:11:36.926Z,2.90
2019-05-12T05:14:06.133Z,2.90
2019-05-12T05:16:35.257Z,2.90
2019-05-12T05:19:04.657Z,2.90
2019-05-12T05:21:34.458Z,3.00
2019-05-12T05:24:04.133Z,3.00
2019-05-12T05:26:37.039Z,3.00
2019-05-12T05:29:04.470Z,3.10
2019-05-12T05:31:34.017Z,3.10
2019-05-12T05:34:04.972Z,3.10
2019-05-12T05:36:34.647Z,3.20
2019-05-12T05:39:06.859Z,3.30
2019-05-12T05:41:40.260Z,3.40
2019-05-12T05:44:06.400Z,3.60
2019-05-12T05:46:38.902Z,3.70
2019-05-12T05:49:05.567Z,4.20
2019-05-12T05:51:39.335Z,4.70
2019-05-12T05:54:05.524Z,5.10
2019-05-12T05:56:42.285Z,5.50
2019-05-12T05:59:04.989Z,5.70
2019-05-12T06:01:34.911Z,6.00
2019-05-12T06:04:08.384Z,6.40
2019-05-12T06:06:35.436Z,6.90
2019-05-12T06:09:06.830Z,7.20
2019-05-12T06:11:35.850Z,7.60
2019-05-12T06:14:11.413Z,8.10
2019-05-12T06:16:35.572Z,8.20
2019-05-12T06:19:04.688Z,8.10
2019-05-12T06:21:36.394Z,8.30
2019-05-12T06:24:08.813Z,8.40
2019-05-12T06:26:35.911Z,8.60
2019-05-12T06:29:05.252Z,8.80
2019-05-12T06:31:34.361Z,8.80
2019-05-12T06:34:06.159Z,9.00
2019-05-12T06:36:34.190Z,9.70
2019-05-12T06:39:05.018Z,9.80
2019-05-12T06:41:34.701Z,10.00
2019-05-12T06:44:08.845Z,10.00
2019-05-12T06:46:35.367Z,10.20
2019-05-12T06:49:10.326Z,10.20
2019-05-12T06:51:35.225Z,10.20
2019-05-12T06:54:10.000Z,10.80
2019-05-12T06:56:34.650Z,11.10
2019-05-12T06:59:09.803Z,11.30
2019-05-12T07:01:33.827Z,12.20
2019-05-12T07:04:06.427Z,12.30
2019-05-12T07:06:33.875Z,12.80
2019-05-12T07:09:09.657Z,13.20
2019-05-12T07:11:44.905Z,13.30
2019-05-12T07:14:13.101Z,13.50
2019-05-12T07:16:36.979Z,13.80
2019-05-12T07:19:16.133Z,14.20
2019-05-12T07:21:36.575Z,14.40
2019-05-12T07:24:06.780Z,14.30
2019-05-12T07:26:35.992Z,14.50
2019-05-12T07:29:05.092Z,14.80
2019-05-12T07:31:34.188Z,15.20
2019-05-12T07:34:07.463Z,15.40
2019-05-12T07:36:34.935Z,15.20
2019-05-12T07:39:08.363Z,15.10
2019-05-12T07:41:42.411Z,15.40
2019-05-12T07:44:11.036Z,15.70
2019-05-12T07:46:44.871Z,15.60
2019-05-12T07:49:10.162Z,15.80
2019-05-12T07:51:40.622Z,15.80
2019-05-12T07:54:09.514Z,15.70
2019-05-12T07:56:40.859Z,16.00
2019-05-12T07:59:09.990Z,16.30
2019-05-12T08:01:48.202Z,16.10
2019-05-12T08:04:09.175Z,16.10
2019-05-12T08:06:41.542Z,16.50
2019-05-12T08:09:08.965Z,16.60
2019-05-12T08:11:38.967Z,16.20
2019-05-12T08:14:15.484Z,16.80
2019-05-12T08:16:38.616Z,16.90
2019-05-12T08:19:08.543Z,17.10
2019-05-12T08:21:43.755Z,17.70
2019-05-12T08:24:07.861Z,17.60
2019-05-12T08:26:37.457Z,17.50
2019-05-12T08:29:10.394Z,17.50
2019-05-12T08:31:40.655Z,17.60
2019-05-12T08:34:07.981Z,18.00
2019-05-12T08:36:37.032Z,18.40
2019-05-12T08:39:11.969Z,18.30
2019-05-12T08:41:38.777Z,18.70
2019-05-12T08:44:07.880Z,18.50
2019-05-12T08:46:36.624Z,18.10
2019-05-12T08:49:05.686Z,18.20
2019-05-12T08:51:34.513Z,18.90
2019-05-12T08:54:07.829Z,18.50
2019-05-12T08:56:34.380Z,19.20
2019-05-12T08:59:04.357Z,18.50
2019-05-12T09:01:34.349Z,17.90
2019-05-12T09:04:06.542Z,18.10
2019-05-12T09:06:34.778Z,18.20
2019-05-12T09:09:06.941Z,18.10
2019-05-12T09:11:35.903Z,18.60
2019-05-12T09:14:05.965Z,19.10
2019-05-12T09:16:35.376Z,19.10
2019-05-12T09:19:05.034Z,19.00
2019-05-12T09:21:37.006Z,19.70
2019-05-12T09:24:04.723Z,19.20
2019-05-12T09:26:34.453Z,19.40
2019-05-12T09:29:03.821Z,19.30
2019-05-12T09:31:33.587Z,19.70
2019-05-12T09:34:11.367Z,20.20
2019-05-12T09:36:33.997Z,20.00
2019-05-12T09:39:05.827Z,20.60
2019-05-12T09:41:42.308Z,20.50
2019-05-12T09:44:06.216Z,20.30
2019-05-12T09:46:37.601Z,20.90
2019-05-12T09:49:05.567Z,20.60
2019-05-12T09:51:41.503Z,20.40
2019-05-12T09:54:05.537Z,20.50
2019-05-12T09:56:34.372Z,20.90
2019-05-12T09:59:17.216Z,20.80
2019-05-12T10:01:37.334Z,20.80
2019-05-12T10:04:04.009Z,20.20
2019-05-12T10:06:33.957Z,20.30
2019-05-12T10:09:08.844Z,19.30
2019-05-12T10:11:34.862Z,19.30
2019-05-12T10:14:08.520Z,19.40
2019-05-12T10:16:39.322Z,19.40
2019-05-12T10:19:05.207Z,18.50
2019-05-12T10:21:35.478Z,18.40
2019-05-12T10:24:05.109Z,18.00
2019-05-12T10:26:34.420Z,18.10
2019-05-12T10:29:16.279Z,17.90
2019-05-12T10:31:35.721Z,17.50
2019-05-12T10:34:24.047Z,17.00
2019-05-12T10:36:53.811Z,16.10
2019-05-12T10:39:24.379Z,15.70
2019-05-12T10:41:54.774Z,15.40
2019-05-12T10:44:24.160Z,16.20
2019-05-12T10:46:54.443Z,16.70
2019-05-12T10:49:23.556Z,17.10
2019-05-12T10:51:53.989Z,17.20
2019-05-12T10:54:24.159Z,17.30
2019-05-12T10:56:54.517Z,16.50
2019-05-12T10:59:32.419Z,17.00
2019-05-12T11:01:54.350Z,17.10
2019-05-12T11:04:35.185Z,16.90
2019-05-12T11:06:54.030Z,17.10
2019-05-12T11:09:29.442Z,16.70
2019-05-12T11:11:53.994Z,16.00
2019-05-12T11:14:26.313Z,15.60
2019-05-12T11:16:55.896Z,15.10
2019-05-12T11:19:24.888Z,14.50
2019-05-12T11:21:53.753Z,13.80
2019-05-12T11:24:22.814Z,13.10
2019-05-12T11:26:53.613Z,12.90
2019-05-12T11:29:23.564Z,12.50
2019-05-12T11:31:53.812Z,12.90
2019-05-12T11:34:23.104Z,13.80
2019-05-12T11:36:54.400Z,14.70
2019-05-12T11:39:23.568Z,15.30
2019-05-12T11:41:55.236Z,15.70
2019-05-12T11:44:23.363Z,15.80
2019-05-12T11:46:54.464Z,15.70
2019-05-12T11:49:26.308Z,16.00
2019-05-12T11:51:54.308Z,16.10
2019-05-12T11:54:24.247Z,16.10
2019-05-12T11:56:53.830Z,16.20
2019-05-12T11:59:23.748Z,16.50
2019-05-12T12:01:53.964Z,16.60
2019-05-12T12:04:25.111Z,15.60
2019-05-12T12:06:54.374Z,15.20
2019-05-12T12:09:23.529Z,14.70
2019-05-12T12:11:54.635Z,14.10
2019-05-12T12:14:23.844Z,13.90
2019-05-12T12:16:54.432Z,14.10
2019-05-12T12:19:27.370Z,13.80
2019-05-12T12:21:54.101Z,14.10
2019-05-12T12:24:29.954Z,14.40
2019-05-12T12:26:53.948Z,14.30
2019-05-12T12:29:24.065Z,14.30
2019-05-12T12:31:54.998Z,14.30
2019-05-12T12:34:29.881Z,14.20
2019-05-12T12:36:54.690Z,14.40
2019-05-12T12:39:24.048Z,14.10
2019-05-12T12:41:59.841Z,13.80
2019-05-12T12:44:24.271Z,13.40
2019-05-12T12:46:59.959Z,13.20
2019-05-12T12:49:23.846Z,13.50
2019-05-12T12:51:53.009Z,13.40
2019-05-12T12:54:22.103Z,13.10
2019-05-12T12:56:51.202Z,12.70
2019-05-12T12:59:20.310Z,12.50
2019-05-12T13:01:49.127Z,12.40
2019-05-12T13:04:17.857Z,12.60
2019-05-12T13:06:46.984Z,12.80
2019-05-12T13:09:22.393Z,12.50
2019-05-12T13:11:46.788Z,12.70
2019-05-12T13:14:15.795Z,12.70
2019-05-12T13:16:49.493Z,12.70
2019-05-12T13:19:17.203Z,12.70
2019-05-12T13:21:46.116Z,12.80
2019-05-12T13:24:14.848Z,12.50
2019-05-12T13:26:43.954Z,12.40
2019-05-12T13:29:13.492Z,12.30
2019-05-12T13:31:46.489Z,12.50
2019-05-12T13:34:14.400Z,12.30
2019-05-12T13:36:44.170Z,12.30
2019-05-12T13:39:16.435Z,12.20
2019-05-12T13:41:43.912Z,12.00
2019-05-12T13:44:13.732Z,12.30
2019-05-12T13:46:43.672Z,12.50
2019-05-12T13:49:14.173Z,12.50
2019-05-12T13:51:48.145Z,12.40
2019-05-12T13:54:14.357Z,12.20
2019-05-12T13:56:44.396Z,12.10
2019-05-12T13:59:20.598Z,11.90
2019-05-12T14:01:45.778Z,11.90
2019-05-12T14:04:14.849Z,11.90
2019-05-12T14:06:43.682Z,11.70
2019-05-12T14:09:13.623Z,11.60
2019-05-12T14:11:43.761Z,11.60
2019-05-12T14:14:15.581Z,11.60
2019-05-12T14:16:52.438Z,11.40
2019-05-12T14:19:14.567Z,11.50
2019-05-12T14:21:44.703Z,11.50
2019-05-12T14:24:13.956Z,11.50
2019-05-12T14:26:45.429Z,11.30
2019-05-12T14:29:13.890Z,11.30
2019-05-12T14:31:50.017Z,11.80
2019-05-12T14:34:19.294Z,12.10
2019-05-12T14:36:44.215Z,12.60
2019-05-12T14:39:13.432Z,13.10
2019-05-12T14:41:45.766Z,13.40
2019-05-12T14:44:13.740Z,13.40
2019-05-12T14:46:46.385Z,13.60
2019-05-12T14:49:14.213Z,13.80
2019-05-12T14:51:44.438Z,13.40
2019-05-12T14:54:14.166Z,13.70
2019-05-12T14:56:47.154Z,13.60
2019-05-12T14:59:14.367Z,13.70
2019-05-12T15:01:53.514Z,13.80
2019-05-12T15:04:19.507Z,14.10
2019-05-12T15:06:45.178Z,13.90
2019-05-12T15:09:20.146Z,13.70
2019-05-12T15:11:45.027Z,13.60
2019-05-12T15:14:13.909Z,13.70
2019-05-12T15:16:44.757Z,13.70
2019-05-12T15:19:14.051Z,13.40
2019-05-12T15:21:43.927Z,13.30
2019-05-12T15:24:15.512Z,13.00
2019-05-12T15:26:43.510Z,12.70
2019-05-12T15:29:17.816Z,12.70
2019-05-12T15:31:53.111Z,12.80
2019-05-12T15:34:14.260Z,12.80
2019-05-12T15:36:51.682Z,12.60
2019-05-12T15:39:14.521Z,12.20
2019-05-12T15:41:43.591Z,12.20
2019-05-12T15:44:14.628Z,12.00
2019-05-12T15:46:46.327Z,11.70
2019-05-12T15:49:13.914Z,11.60
2019-05-12T15:51:50.975Z,11.60
2019-05-12T15:54:14.601Z,11.50
2019-05-12T15:56:44.024Z,11.20
2019-05-12T15:59:17.052Z,11.00
2019-05-12T16:01:44.019Z,11.00
2019-05-12T16:04:15.152Z,11.00
2019-05-12T16:06:52.962Z,11.10
2019-05-12T16:09:15.132Z,11.20
2019-05-12T16:11:44.236Z,11.20
2019-05-12T16:14:12.973Z,11.30
2019-05-12T16:16:42.963Z,11.30
2019-05-12T16:19:14.548Z,11.20
2019-05-12T16:21:45.384Z,11.10
2019-05-12T16:24:15.695Z,11.10
2019-05-12T16:26:51.755Z,11.00
2019-05-12T16:29:15.279Z,10.80
2019-05-12T16:31:45.628Z,10.90
2019-05-12T16:34:14.755Z,10.80
2019-05-12T16:36:49.824Z,10.80
2019-05-12T16:39:13.921Z,10.70
2019-05-12T16:41:43.914Z,10.70
2019-05-12T16:44:22.799Z,10.70
2019-05-12T16:46:44.545Z,10.80
2019-05-12T16:49:14.258Z,10.70
2019-05-12T16:51:43.846Z,10.70
2019-05-12T16:54:13.406Z,10.70
2019-05-12T16:56:43.405Z,10.70
2019-05-12T16:59:16.972Z,10.90
2019-05-12T17:01:43.893Z,10.90
2019-05-12T17:04:13.531Z,10.80
2019-05-12T17:06:43.280Z,10.80
2019-05-12T17:09:13.557Z,11.00
2019-05-12T17:11:47.126Z,10.90
2019-05-12T17:14:13.758Z,10.90
2019-05-12T17:16:46.506Z,11.00
2019-05-12T17:19:15.448Z,10.80
2019-05-12T17:21:44.234Z,10.70
2019-05-12T17:24:14.604Z,10.70
2019-05-12T17:26:44.066Z,10.60
2019-05-12T17:29:13.737Z,10.70
2019-05-12T17:31:44.456Z,10.70
2019-05-12T17:34:14.351Z,10.60
2019-05-12T17:36:44.907Z,10.60
2019-05-12T17:39:14.107Z,10.60
2019-05-12T17:41:49.503Z,10.60
2019-05-12T17:44:18.587Z,10.60
2019-05-12T17:46:47.316Z,10.50
2019-05-12T17:49:25.476Z,10.60
2019-05-12T17:51:47.114Z,10.50
2019-05-12T17:54:21.695Z,10.50
2019-05-12T17:56:46.745Z,10.40
2019-05-12T17:59:23.490Z,10.40
2019-05-12T18:01:46.462Z,10.30
2019-05-12T18:04:20.274Z,10.40
2019-05-12T18:06:45.825Z,10.40
2019-05-12T18:09:19.918Z,10.30
2019-05-12T18:11:52.580Z,10.20
2019-05-12T18:14:17.014Z,10.20
2019-05-12T18:16:45.737Z,10.10
2019-05-12T18:19:19.238Z,10.20
2019-05-12T18:21:45.160Z,10.20
2019-05-12T18:24:14.434Z,10.10
2019-05-12T18:26:47.112Z,10.10
2019-05-12T18:29:14.690Z,10.10
2019-05-12T18:31:43.820Z,10.00
2019-05-12T18:34:13.881Z,10.00
2019-05-12T18:36:43.108Z,9.90
2019-05-12T18:39:15.072Z,10.00
2019-05-12T18:41:43.856Z,9.90
2019-05-12T18:44:18.205Z,9.90
2019-05-12T18:46:45.469Z,9.80
2019-05-12T18:49:16.104Z,9.80
2019-05-12T18:51:49.122Z,9.70
2019-05-12T18:54:15.159Z,9.70
2019-05-12T18:56:44.619Z,9.60
2019-05-12T18:59:16.214Z,9.60
2019-05-12T19:01:44.346Z,9.60
2019-05-12T19:04:14.363Z,9.60
2019-05-12T19:06:43.954Z,9.60
2019-05-12T19:09:13.706Z,9.60
2019-05-12T19:11:46.413Z,9.50
2019-05-12T19:14:13.612Z,9.40
2019-05-12T19:16:43.632Z,9.40
2019-05-12T19:19:16.789Z,9.30
2019-05-12T19:21:46.691Z,9.30
2019-05-12T19:24:19.732Z,9.20
2019-05-12T19:26:46.567Z,9.20
2019-05-12T19:29:15.998Z,9.10
2019-05-12T19:31:51.928Z,9.10
2019-05-12T19:34:21.997Z,9.10
2019-05-12T19:36:49.445Z,9.10
2019-05-12T19:39:16.461Z,9.00
2019-05-12T19:41:45.210Z,9.00
2019-05-12T19:44:13.913Z,9.00
2019-05-12T19:46:47.669Z,9.00
2019-05-12T19:49:13.867Z,8.90
2019-05-12T19:51:43.840Z,8.90
2019-05-12T19:54:13.998Z,8.90
2019-05-12T19:56:43.466Z,8.80
2019-05-12T19:59:14.395Z,8.70
2019-05-12T20:01:44.528Z,8.70
2019-05-12T20:04:15.471Z,8.70
2019-05-12T20:06:44.089Z,8.70
2019-05-12T20:09:14.685Z,8.70
2019-05-12T20:11:43.811Z,8.70
2019-05-12T20:14:19.036Z,8.60
2019-05-12T20:16:43.998Z,8.60
2019-05-12T20:19:13.621Z,8.60
2019-05-12T20:21:43.795Z,8.60
2019-05-12T20:24:14.365Z,8.50
2019-05-12T20:26:44.059Z,8.50
2019-05-12T20:29:13.810Z,8.50
2019-05-12T20:31:48.277Z,8.50
2019-05-12T20:34:13.871Z,8.50
2019-05-12T20:36:44.415Z,8.50
2019-05-12T20:39:17.149Z,8.50
2019-05-12T20:41:54.783Z,8.40
2019-05-12T20:44:21.161Z,8.40
2019-05-12T20:46:50.044Z,8.40
2019-05-12T20:49:20.387Z,8.50
2019-05-12T20:51:56.853Z,8.40
2019-05-12T20:54:21.193Z,8.40
2019-05-12T20:56:53.005Z,8.40
2019-05-12T20:59:23.384Z,8.40
2019-05-12T21:01:51.370Z,8.30
2019-05-12T21:04:22.045Z,8.30
2019-05-12T21:06:53.969Z,8.30
2019-05-12T21:09:23.671Z,8.20
2019-05-12T21:11:54.419Z,8.20
2019-05-12T21:14:24.031Z,8.20
2019-05-12T21:16:53.908Z,8.10
2019-05-12T21:19:24.071Z,8.10
2019-05-12T21:21:54.197Z,8.10
2019-05-12T21:24:24.465Z,8.00
2019-05-12T21:26:54.675Z,8.00
2019-05-12T21:29:25.617Z,8.00
2019-05-12T21:31:56.329Z,8.00
2019-05-12T21:34:25.597Z,8.00
2019-05-12T21:36:59.077Z,8.00
2019-05-12T21:39:25.942Z,8.00
2019-05-12T21:41:55.172Z,8.00
2019-05-12T21:44:24.843Z,7.90
2019-05-12T21:47:03.592Z,7.90
2019-05-12T21:49:25.290Z,7.90
2019-05-12T21:51:59.060Z,7.90
2019-05-12T21:54:29.446Z,7.90
2019-05-12T21:56:56.163Z,7.90
2019-05-12T21:59:28.823Z,7.80
2019-05-12T22:01:56.021Z,7.80
2019-05-12T22:04:24.769Z,7.70
2019-05-12T22:06:57.100Z,7.70
2019-05-12T22:09:24.396Z,7.70
2019-05-12T22:11:54.182Z,7.70
2019-05-12T22:14:24.095Z,7.70
2019-05-12T22:16:54.824Z,7.70
2019-05-12T22:19:23.549Z,7.70
2019-05-12T22:21:53.675Z,7.80
2019-05-12T22:24:25.229Z,7.80
2019-05-12T22:26:54.335Z,7.80
2019-05-12T22:29:29.526Z,7.80
2019-05-12T22:31:54.080Z,7.80
2019-05-12T22:34:27.654Z,7.90
2019-05-12T22:36:58.734Z,7.90
2019-05-12T22:39:25.040Z,7.80
2019-05-12T22:41:54.139Z,7.90
2019-05-12T22:44:25.116Z,7.90
2019-05-12T22:46:54.149Z,8.00
2019-05-12T22:49:23.386Z,8.00
2019-05-12T22:51:54.571Z,8.10
2019-05-12T22:54:24.343Z,8.10
2019-05-12T22:56:55.348Z,8.10
2019-05-12T22:59:24.178Z,8.10
2019-05-12T23:01:54.181Z,8.10
2019-05-12T23:04:25.977Z,8.10
2019-05-12T23:06:54.424Z,8.20
2019-05-12T23:09:25.976Z,8.20
2019-05-12T23:11:54.261Z,8.20
2019-05-12T23:14:25.085Z,8.10
2019-05-12T23:16:54.532Z,8.20
2019-05-12T23:19:23.631Z,8.20
2019-05-12T23:21:55.569Z,8.20
2019-05-12T23:24:23.781Z,8.20
2019-05-12T23:26:54.242Z,8.20
2019-05-12T23:29:26.793Z,8.20
2019-05-12T23:31:54.297Z,8.30
2019-05-12T23:34:23.599Z,8.30
2019-05-12T23:36:56.823Z,8.30
2019-05-12T23:39:23.653Z,8.40
2019-05-12T23:41:53.788Z,8.40
2019-05-12T23:44:23.978Z,8.30
2019-05-12T23:46:53.827Z,8.40
2019-05-12T23:49:24.451Z,8.40
2019-05-12T23:51:54.215Z,8.40
2019-05-12T23:54:23.932Z,8.40
2019-05-12T23:56:53.682Z,8.40
2019-05-12T23:59:24.015Z,8.40
